sensor_id;sensor_type;location;lat;lon;timestamp;P1;durP1;ratioP1;P2;durP2;ratioP2
22336;SDS011;14992;50.844;4.418;2024-03-06T00:01:21;7.50;;;4.00;;
22336;SDS011;14992;50.844;4.418;2024-03-06T00:03:52;6.47;;;4.30;;
22336;SDS011;14992;50.844;4.418;2024-03-06T00:06:20;5.50;;;3.90;;
22336;SDS011;14992;50.844;4.418;2024-03-06T00:08:49;4.43;;;3.38;;
22336;SDS011;14992;50.844;4.418;2024-03-06T00:11:18;5.53;;;3.55;;
22336;SDS011;14992;50.844;4.418;2024-03-06T00:13:47;7.60;;;3.95;;
22336;SDS011;14992;50.844;4.418;2024-03-06T00:16:16;4.78;;;2.92;;
22336;SDS011;14992;50.844;4.418;2024-03-06T00:18:47;5.18;;;3.25;;
22336;SDS011;14992;50.844;4.418;2024-03-06T00:21:17;5.50;;;3.65;;
22336;SDS011;14992;50.844;4.418;2024-03-06T00:23:46;6.43;;;3.20;;
22336;SDS011;14992;50.844;4.418;2024-03-06T00:26:14;6.03;;;3.65;;
22336;SDS011;14992;50.844;4.418;2024-03-06T00:28:43;4.95;;;3.67;;
22336;SDS011;14992;50.844;4.418;2024-03-06T00:31:12;6.47;;;4.03;;
22336;SDS011;14992;50.844;4.418;2024-03-06T00:33:41;7.25;;;3.90;;
22336;SDS011;14992;50.844;4.418;2024-03-06T00:36:10;4.72;;;3.33;;
22336;SDS011;14992;50.844;4.418;2024-03-06T00:38:40;5.63;;;3.67;;
22336;SDS011;14992;50.844;4.418;2024-03-06T00:41:09;5.45;;;3.60;;
22336;SDS011;14992;50.844;4.418;2024-03-06T00:43:38;6.65;;;4.10;;
22336;SDS011;14992;50.844;4.418;2024-03-06T00:46:07;6.38;;;4.22;;
22336;SDS011;14992;50.844;4.418;2024-03-06T00:48:36;5.88;;;4.63;;
22336;SDS011;14992;50.844;4.418;2024-03-06T00:51:09;4.75;;;4.10;;
22336;SDS011;14992;50.844;4.418;2024-03-06T00:53:38;6.43;;;4.35;;
22336;SDS011;14992;50.844;4.418;2024-03-06T00:56:09;7.40;;;4.30;;
22336;SDS011;14992;50.844;4.418;2024-03-06T00:58:38;5.50;;;3.70;;
22336;SDS011;14992;50.844;4.418;2024-03-06T01:01:06;5.13;;;3.35;;
22336;SDS011;14992;50.844;4.418;2024-03-06T01:03:37;6.88;;;4.50;;
22336;SDS011;14992;50.844;4.418;2024-03-06T01:06:06;5.60;;;3.60;;
22336;SDS011;14992;50.844;4.418;2024-03-06T01:08:34;5.32;;;3.95;;
22336;SDS011;14992;50.844;4.418;2024-03-06T01:11:05;6.28;;;4.00;;
22336;SDS011;14992;50.844;4.418;2024-03-06T01:13:34;4.88;;;3.80;;
22336;SDS011;14992;50.844;4.418;2024-03-06T01:16:03;5.57;;;3.95;;
22336;SDS011;14992;50.844;4.418;2024-03-06T01:18:32;5.65;;;3.83;;
22336;SDS011;14992;50.844;4.418;2024-03-06T01:21:01;6.07;;;3.97;;
22336;SDS011;14992;50.844;4.418;2024-03-06T01:23:30;6.43;;;4.00;;
22336;SDS011;14992;50.844;4.418;2024-03-06T01:25:59;7.28;;;4.03;;
22336;SDS011;14992;50.844;4.418;2024-03-06T01:28:29;7.13;;;4.70;;
22336;SDS011;14992;50.844;4.418;2024-03-06T01:30:58;5.47;;;4.05;;
22336;SDS011;14992;50.844;4.418;2024-03-06T01:33:27;6.47;;;4.05;;
22336;SDS011;14992;50.844;4.418;2024-03-06T01:35:56;5.80;;;4.50;;
22336;SDS011;14992;50.844;4.418;2024-03-06T01:38:25;8.15;;;5.18;;
22336;SDS011;14992;50.844;4.418;2024-03-06T01:40:53;6.35;;;4.20;;
22336;SDS011;14992;50.844;4.418;2024-03-06T01:43:23;8.15;;;4.97;;
22336;SDS011;14992;50.844;4.418;2024-03-06T01:45:54;5.35;;;4.03;;
22336;SDS011;14992;50.844;4.418;2024-03-06T01:48:26;6.82;;;4.38;;
22336;SDS011;14992;50.844;4.418;2024-03-06T01:50:56;5.88;;;4.05;;
22336;SDS011;14992;50.844;4.418;2024-03-06T01:53:27;5.60;;;4.03;;
22336;SDS011;14992;50.844;4.418;2024-03-06T01:55:58;7.00;;;4.35;;
22336;SDS011;14992;50.844;4.418;2024-03-06T01:58:28;6.43;;;4.25;;
22336;SDS011;14992;50.844;4.418;2024-03-06T02:00:59;8.20;;;4.65;;
22336;SDS011;14992;50.844;4.418;2024-03-06T02:03:28;6.65;;;4.28;;
22336;SDS011;14992;50.844;4.418;2024-03-06T02:05:59;7.00;;;5.07;;
22336;SDS011;14992;50.844;4.418;2024-03-06T02:08:30;7.80;;;4.78;;
22336;SDS011;14992;50.844;4.418;2024-03-06T02:10:59;6.88;;;4.53;;
22336;SDS011;14992;50.844;4.418;2024-03-06T02:13:29;7.75;;;4.45;;
22336;SDS011;14992;50.844;4.418;2024-03-06T02:16:03;5.35;;;4.15;;
22336;SDS011;14992;50.844;4.418;2024-03-06T02:18:32;7.00;;;4.93;;
22336;SDS011;14992;50.844;4.418;2024-03-06T02:21:02;6.63;;;4.57;;
22336;SDS011;14992;50.844;4.418;2024-03-06T02:23:34;7.85;;;4.07;;
22336;SDS011;14992;50.844;4.418;2024-03-06T02:26:03;7.25;;;4.60;;
22336;SDS011;14992;50.844;4.418;2024-03-06T02:28:34;7.15;;;4.90;;
22336;SDS011;14992;50.844;4.418;2024-03-06T02:31:03;7.80;;;4.90;;
22336;SDS011;14992;50.844;4.418;2024-03-06T02:33:33;6.18;;;5.38;;
22336;SDS011;14992;50.844;4.418;2024-03-06T02:36:04;6.97;;;4.53;;
22336;SDS011;14992;50.844;4.418;2024-03-06T02:38:33;8.30;;;4.93;;
22336;SDS011;14992;50.844;4.418;2024-03-06T02:41:02;7.72;;;4.93;;
22336;SDS011;14992;50.844;4.418;2024-03-06T02:43:33;6.82;;;5.00;;
22336;SDS011;14992;50.844;4.418;2024-03-06T02:46:02;7.78;;;5.10;;
22336;SDS011;14992;50.844;4.418;2024-03-06T02:48:32;9.18;;;4.97;;
22336;SDS011;14992;50.844;4.418;2024-03-06T02:51:01;9.75;;;5.18;;
22336;SDS011;14992;50.844;4.418;2024-03-06T02:53:32;7.07;;;4.95;;
22336;SDS011;14992;50.844;4.418;2024-03-06T02:56:01;8.52;;;5.45;;
22336;SDS011;14992;50.844;4.418;2024-03-06T02:58:29;7.38;;;4.95;;
22336;SDS011;14992;50.844;4.418;2024-03-06T03:00:59;6.10;;;4.53;;
22336;SDS011;14992;50.844;4.418;2024-03-06T03:03:27;7.30;;;4.68;;
22336;SDS011;14992;50.844;4.418;2024-03-06T03:05:58;7.22;;;5.55;;
22336;SDS011;14992;50.844;4.418;2024-03-06T03:08:29;7.80;;;4.75;;
22336;SDS011;14992;50.844;4.418;2024-03-06T03:10:57;6.18;;;4.78;;
22336;SDS011;14992;50.844;4.418;2024-03-06T03:13:26;7.53;;;4.95;;
22336;SDS011;14992;50.844;4.418;2024-03-06T03:15:55;7.68;;;5.20;;
22336;SDS011;14992;50.844;4.418;2024-03-06T03:18:25;8.75;;;5.20;;
22336;SDS011;14992;50.844;4.418;2024-03-06T03:20:54;8.30;;;5.05;;
22336;SDS011;14992;50.844;4.418;2024-03-06T03:23:23;8.60;;;5.40;;
22336;SDS011;14992;50.844;4.418;2024-03-06T03:25:53;9.27;;;5.97;;
22336;SDS011;14992;50.844;4.418;2024-03-06T03:28:22;8.02;;;4.80;;
22336;SDS011;14992;50.844;4.418;2024-03-06T03:30:50;6.88;;;5.03;;
22336;SDS011;14992;50.844;4.418;2024-03-06T03:33:19;8.98;;;4.80;;
22336;SDS011;14992;50.844;4.418;2024-03-06T03:35:48;7.45;;;4.85;;
22336;SDS011;14992;50.844;4.418;2024-03-06T03:38:17;8.38;;;4.97;;
22336;SDS011;14992;50.844;4.418;2024-03-06T03:40:46;10.68;;;5.55;;
22336;SDS011;14992;50.844;4.418;2024-03-06T03:43:16;7.20;;;4.88;;
22336;SDS011;14992;50.844;4.418;2024-03-06T03:45:46;6.50;;;5.00;;
22336;SDS011;14992;50.844;4.418;2024-03-06T03:48:15;8.88;;;5.40;;
22336;SDS011;14992;50.844;4.418;2024-03-06T03:50:44;8.68;;;5.22;;
22336;SDS011;14992;50.844;4.418;2024-03-06T03:53:13;7.88;;;4.78;;
22336;SDS011;14992;50.844;4.418;2024-03-06T03:55:43;8.48;;;5.60;;
22336;SDS011;14992;50.844;4.418;2024-03-06T03:58:12;7.10;;;5.10;;
22336;SDS011;14992;50.844;4.418;2024-03-06T04:00:42;8.65;;;5.20;;
22336;SDS011;14992;50.844;4.418;2024-03-06T04:03:11;8.07;;;5.47;;
22336;SDS011;14992;50.844;4.418;2024-03-06T04:05:40;8.65;;;5.47;;
22336;SDS011;14992;50.844;4.418;2024-03-06T04:08:08;7.03;;;5.35;;
22336;SDS011;14992;50.844;4.418;2024-03-06T04:10:37;8.00;;;5.35;;
22336;SDS011;14992;50.844;4.418;2024-03-06T04:13:08;9.38;;;5.07;;
22336;SDS011;14992;50.844;4.418;2024-03-06T04:15:37;8.38;;;5.30;;
22336;SDS011;14992;50.844;4.418;2024-03-06T04:18:07;7.55;;;4.85;;
22336;SDS011;14992;50.844;4.418;2024-03-06T04:20:36;8.38;;;5.03;;
22336;SDS011;14992;50.844;4.418;2024-03-06T04:23:05;8.48;;;4.95;;
22336;SDS011;14992;50.844;4.418;2024-03-06T04:25:34;7.95;;;4.82;;
22336;SDS011;14992;50.844;4.418;2024-03-06T04:28:04;7.85;;;5.05;;
22336;SDS011;14992;50.844;4.418;2024-03-06T04:30:34;7.75;;;4.75;;
22336;SDS011;14992;50.844;4.418;2024-03-06T04:33:03;9.55;;;5.10;;
22336;SDS011;14992;50.844;4.418;2024-03-06T04:35:33;10.18;;;5.13;;
22336;SDS011;14992;50.844;4.418;2024-03-06T04:38:03;7.68;;;5.07;;
22336;SDS011;14992;50.844;4.418;2024-03-06T04:40:33;12.25;;;6.03;;
22336;SDS011;14992;50.844;4.418;2024-03-06T04:43:02;10.07;;;5.35;;
22336;SDS011;14992;50.844;4.418;2024-03-06T04:45:31;7.55;;;5.78;;
22336;SDS011;14992;50.844;4.418;2024-03-06T04:48:00;7.57;;;5.32;;
22336;SDS011;14992;50.844;4.418;2024-03-06T04:50:29;9.45;;;5.32;;
22336;SDS011;14992;50.844;4.418;2024-03-06T04:53:00;6.75;;;5.20;;
22336;SDS011;14992;50.844;4.418;2024-03-06T04:55:28;7.50;;;4.85;;
22336;SDS011;14992;50.844;4.418;2024-03-06T04:57:57;12.05;;;6.28;;
22336;SDS011;14992;50.844;4.418;2024-03-06T05:00:26;9.02;;;6.13;;
22336;SDS011;14992;50.844;4.418;2024-03-06T05:02:56;10.23;;;6.22;;
22336;SDS011;14992;50.844;4.418;2024-03-06T05:05:42;8.93;;;5.57;;
22336;SDS011;14992;50.844;4.418;2024-03-06T05:08:30;11.90;;;6.05;;
22336;SDS011;14992;50.844;4.418;2024-03-06T05:11:16;9.45;;;5.82;;
22336;SDS011;14992;50.844;4.418;2024-03-06T05:14:02;10.27;;;6.28;;
22336;SDS011;14992;50.844;4.418;2024-03-06T05:16:49;11.27;;;5.55;;
22336;SDS011;14992;50.844;4.418;2024-03-06T05:19:35;10.98;;;5.60;;
22336;SDS011;14992;50.844;4.418;2024-03-06T05:22:21;8.70;;;5.70;;
22336;SDS011;14992;50.844;4.418;2024-03-06T05:25:09;9.00;;;5.35;;
22336;SDS011;14992;50.844;4.418;2024-03-06T05:27:55;8.02;;;6.18;;
22336;SDS011;14992;50.844;4.418;2024-03-06T05:30:42;11.07;;;5.22;;
22336;SDS011;14992;50.844;4.418;2024-03-06T05:33:35;11.45;;;6.38;;
22336;SDS011;14992;50.844;4.418;2024-03-06T05:36:21;13.43;;;6.93;;
22336;SDS011;14992;50.844;4.418;2024-03-06T05:39:08;11.63;;;6.32;;
22336;SDS011;14992;50.844;4.418;2024-03-06T05:42:01;10.85;;;6.28;;
22336;SDS011;14992;50.844;4.418;2024-03-06T05:44:48;9.82;;;6.50;;
22336;SDS011;14992;50.844;4.418;2024-03-06T05:47:38;12.02;;;6.18;;
22336;SDS011;14992;50.844;4.418;2024-03-06T05:50:25;8.02;;;4.95;;
22336;SDS011;14992;50.844;4.418;2024-03-06T05:53:12;10.75;;;6.32;;
22336;SDS011;14992;50.844;4.418;2024-03-06T05:55:58;12.35;;;6.03;;
22336;SDS011;14992;50.844;4.418;2024-03-06T05:58:46;10.05;;;5.90;;
22336;SDS011;14992;50.844;4.418;2024-03-06T06:01:16;14.77;;;6.30;;
22336;SDS011;14992;50.844;4.418;2024-03-06T06:03:47;10.32;;;5.95;;
22336;SDS011;14992;50.844;4.418;2024-03-06T06:06:16;8.65;;;5.45;;
22336;SDS011;14992;50.844;4.418;2024-03-06T06:08:46;13.27;;;6.18;;
22336;SDS011;14992;50.844;4.418;2024-03-06T06:11:15;8.68;;;5.82;;
22336;SDS011;14992;50.844;4.418;2024-03-06T06:13:43;13.52;;;7.18;;
22336;SDS011;14992;50.844;4.418;2024-03-06T06:16:14;9.50;;;6.00;;
22336;SDS011;14992;50.844;4.418;2024-03-06T06:18:43;14.57;;;7.63;;
22336;SDS011;14992;50.844;4.418;2024-03-06T06:21:11;11.27;;;6.85;;
22336;SDS011;14992;50.844;4.418;2024-03-06T06:23:40;23.83;;;13.70;;
22336;SDS011;14992;50.844;4.418;2024-03-06T06:26:09;11.77;;;7.60;;
22336;SDS011;14992;50.844;4.418;2024-03-06T06:28:40;12.88;;;7.07;;
22336;SDS011;14992;50.844;4.418;2024-03-06T06:31:10;11.23;;;6.72;;
22336;SDS011;14992;50.844;4.418;2024-03-06T06:33:39;12.75;;;6.82;;
22336;SDS011;14992;50.844;4.418;2024-03-06T06:36:08;11.70;;;6.68;;
22336;SDS011;14992;50.844;4.418;2024-03-06T06:38:37;10.40;;;6.88;;
22336;SDS011;14992;50.844;4.418;2024-03-06T06:41:06;8.55;;;6.72;;
22336;SDS011;14992;50.844;4.418;2024-03-06T06:43:35;12.45;;;6.70;;
22336;SDS011;14992;50.844;4.418;2024-03-06T06:46:04;11.98;;;7.30;;
22336;SDS011;14992;50.844;4.418;2024-03-06T06:48:34;12.77;;;7.50;;
22336;SDS011;14992;50.844;4.418;2024-03-06T06:51:03;12.38;;;7.10;;
22336;SDS011;14992;50.844;4.418;2024-03-06T06:53:32;11.07;;;6.53;;
22336;SDS011;14992;50.844;4.418;2024-03-06T06:56:01;12.30;;;6.55;;
22336;SDS011;14992;50.844;4.418;2024-03-06T06:58:30;12.30;;;6.90;;
22336;SDS011;14992;50.844;4.418;2024-03-06T07:00:59;11.75;;;6.78;;
22336;SDS011;14992;50.844;4.418;2024-03-06T07:03:28;14.60;;;8.80;;
22336;SDS011;14992;50.844;4.418;2024-03-06T07:05:59;11.50;;;7.03;;
22336;SDS011;14992;50.844;4.418;2024-03-06T07:08:27;14.73;;;8.73;;
22336;SDS011;14992;50.844;4.418;2024-03-06T07:10:56;11.98;;;6.85;;
22336;SDS011;14992;50.844;4.418;2024-03-06T07:13:25;12.90;;;6.90;;
22336;SDS011;14992;50.844;4.418;2024-03-06T07:15:54;12.35;;;7.18;;
22336;SDS011;14992;50.844;4.418;2024-03-06T07:18:23;11.57;;;7.05;;
22336;SDS011;14992;50.844;4.418;2024-03-06T07:20:52;11.40;;;6.25;;
22336;SDS011;14992;50.844;4.418;2024-03-06T07:23:23;12.48;;;7.15;;
22336;SDS011;14992;50.844;4.418;2024-03-06T07:25:52;12.15;;;6.70;;
22336;SDS011;14992;50.844;4.418;2024-03-06T07:28:21;10.00;;;6.72;;
22336;SDS011;14992;50.844;4.418;2024-03-06T07:30:50;8.90;;;6.30;;
22336;SDS011;14992;50.844;4.418;2024-03-06T07:33:19;11.98;;;6.30;;
22336;SDS011;14992;50.844;4.418;2024-03-06T07:35:48;31.13;;;13.70;;
22336;SDS011;14992;50.844;4.418;2024-03-06T07:38:17;14.20;;;8.23;;
22336;SDS011;14992;50.844;4.418;2024-03-06T07:40:48;9.23;;;6.05;;
22336;SDS011;14992;50.844;4.418;2024-03-06T07:43:17;13.40;;;8.95;;
22336;SDS011;14992;50.844;4.418;2024-03-06T07:45:46;11.68;;;8.15;;
22336;SDS011;14992;50.844;4.418;2024-03-06T07:48:16;14.32;;;8.45;;
22336;SDS011;14992;50.844;4.418;2024-03-06T07:50:45;9.77;;;6.00;;
22336;SDS011;14992;50.844;4.418;2024-03-06T07:53:14;13.73;;;7.22;;
22336;SDS011;14992;50.844;4.418;2024-03-06T07:55:43;13.88;;;7.18;;
22336;SDS011;14992;50.844;4.418;2024-03-06T07:58:13;10.15;;;6.35;;
22336;SDS011;14992;50.844;4.418;2024-03-06T08:00:44;9.98;;;5.72;;
22336;SDS011;14992;50.844;4.418;2024-03-06T08:03:13;12.27;;;6.70;;
22336;SDS011;14992;50.844;4.418;2024-03-06T08:05:43;9.32;;;5.85;;
22336;SDS011;14992;50.844;4.418;2024-03-06T08:08:12;14.52;;;7.57;;
22336;SDS011;14992;50.844;4.418;2024-03-06T08:10:41;13.95;;;6.45;;
22336;SDS011;14992;50.844;4.418;2024-03-06T08:13:12;9.02;;;6.28;;
22336;SDS011;14992;50.844;4.418;2024-03-06T08:15:42;11.80;;;5.97;;
22336;SDS011;14992;50.844;4.418;2024-03-06T08:18:12;11.25;;;6.38;;
22336;SDS011;14992;50.844;4.418;2024-03-06T08:20:41;8.70;;;6.38;;
22336;SDS011;14992;50.844;4.418;2024-03-06T08:23:10;10.35;;;6.53;;
22336;SDS011;14992;50.844;4.418;2024-03-06T08:25:40;9.13;;;5.50;;
22336;SDS011;14992;50.844;4.418;2024-03-06T08:28:09;8.43;;;4.75;;
22336;SDS011;14992;50.844;4.418;2024-03-06T08:30:39;8.38;;;4.88;;
22336;SDS011;14992;50.844;4.418;2024-03-06T08:33:08;6.82;;;4.68;;
22336;SDS011;14992;50.844;4.418;2024-03-06T08:35:37;7.53;;;4.47;;
22336;SDS011;14992;50.844;4.418;2024-03-06T08:38:06;9.25;;;5.00;;
22336;SDS011;14992;50.844;4.418;2024-03-06T08:40:35;6.45;;;4.25;;
22336;SDS011;14992;50.844;4.418;2024-03-06T08:43:07;8.38;;;5.07;;
22336;SDS011;14992;50.844;4.418;2024-03-06T08:45:37;8.15;;;4.00;;
22336;SDS011;14992;50.844;4.418;2024-03-06T08:48:07;6.03;;;3.70;;
22336;SDS011;14992;50.844;4.418;2024-03-06T08:50:36;7.47;;;4.38;;
22336;SDS011;14992;50.844;4.418;2024-03-06T08:53:05;6.55;;;4.15;;
22336;SDS011;14992;50.844;4.418;2024-03-06T08:55:36;7.25;;;3.78;;
22336;SDS011;14992;50.844;4.418;2024-03-06T08:58:05;8.77;;;4.43;;
22336;SDS011;14992;50.844;4.418;2024-03-06T09:00:34;7.65;;;4.15;;
22336;SDS011;14992;50.844;4.418;2024-03-06T09:03:05;8.57;;;4.05;;
22336;SDS011;14992;50.844;4.418;2024-03-06T09:05:34;8.35;;;4.63;;
22336;SDS011;14992;50.844;4.418;2024-03-06T09:08:03;8.25;;;3.97;;
22336;SDS011;14992;50.844;4.418;2024-03-06T09:10:36;6.28;;;3.90;;
22336;SDS011;14992;50.844;4.418;2024-03-06T09:13:05;8.40;;;4.45;;
22336;SDS011;14992;50.844;4.418;2024-03-06T09:15:34;5.43;;;3.83;;
22336;SDS011;14992;50.844;4.418;2024-03-06T09:18:03;9.35;;;4.88;;
22336;SDS011;14992;50.844;4.418;2024-03-06T09:20:34;8.13;;;4.05;;
22336;SDS011;14992;50.844;4.418;2024-03-06T09:23:03;10.48;;;4.35;;
22336;SDS011;14992;50.844;4.418;2024-03-06T09:25:32;9.43;;;4.15;;
22336;SDS011;14992;50.844;4.418;2024-03-06T09:28:01;6.25;;;3.67;;
22336;SDS011;14992;50.844;4.418;2024-03-06T09:30:32;6.95;;;3.58;;
22336;SDS011;14992;50.844;4.418;2024-03-06T09:33:00;8.93;;;4.32;;
22336;SDS011;14992;50.844;4.418;2024-03-06T09:35:30;10.25;;;3.50;;
22336;SDS011;14992;50.844;4.418;2024-03-06T09:38:01;6.55;;;3.83;;
22336;SDS011;14992;50.844;4.418;2024-03-06T09:40:30;6.72;;;4.20;;
22336;SDS011;14992;50.844;4.418;2024-03-06T09:42:59;6.65;;;3.90;;
22336;SDS011;14992;50.844;4.418;2024-03-06T09:45:29;11.10;;;3.92;;
22336;SDS011;14992;50.844;4.418;2024-03-06T09:47:58;5.38;;;3.92;;
22336;SDS011;14992;50.844;4.418;2024-03-06T09:50:27;5.18;;;3.80;;
22336;SDS011;14992;50.844;4.418;2024-03-06T09:53:03;6.32;;;4.13;;
22336;SDS011;14992;50.844;4.418;2024-03-06T09:55:34;7.53;;;4.10;;
22336;SDS011;14992;50.844;4.418;2024-03-06T09:58:05;6.28;;;3.53;;
22336;SDS011;14992;50.844;4.418;2024-03-06T10:00:35;6.28;;;3.50;;
22336;SDS011;14992;50.844;4.418;2024-03-06T10:03:07;7.10;;;3.88;;
22336;SDS011;14992;50.844;4.418;2024-03-06T10:05:36;5.78;;;3.88;;
22336;SDS011;14992;50.844;4.418;2024-03-06T10:08:06;7.28;;;4.05;;
22336;SDS011;14992;50.844;4.418;2024-03-06T10:10:35;6.13;;;4.50;;
22336;SDS011;14992;50.844;4.418;2024-03-06T10:13:04;4.43;;;2.92;;
22336;SDS011;14992;50.844;4.418;2024-03-06T10:15:34;5.35;;;3.58;;
22336;SDS011;14992;50.844;4.418;2024-03-06T10:18:10;6.20;;;4.00;;
22336;SDS011;14992;50.844;4.418;2024-03-06T10:20:40;5.80;;;3.67;;
22336;SDS011;14992;50.844;4.418;2024-03-06T10:23:13;5.93;;;3.38;;
22336;SDS011;14992;50.844;4.418;2024-03-06T10:25:46;5.95;;;2.97;;
22336;SDS011;14992;50.844;4.418;2024-03-06T10:28:18;5.18;;;2.95;;
22336;SDS011;14992;50.844;4.418;2024-03-06T10:30:49;4.32;;;2.85;;
22336;SDS011;14992;50.844;4.418;2024-03-06T10:33:19;7.07;;;3.40;;
22336;SDS011;14992;50.844;4.418;2024-03-06T10:35:48;6.82;;;3.65;;
22336;SDS011;14992;50.844;4.418;2024-03-06T10:38:19;3.47;;;2.65;;
22336;SDS011;14992;50.844;4.418;2024-03-06T10:40:49;6.32;;;3.50;;
22336;SDS011;14992;50.844;4.418;2024-03-06T10:43:19;6.05;;;3.03;;
22336;SDS011;14992;50.844;4.418;2024-03-06T10:45:51;5.13;;;2.83;;
22336;SDS011;14992;50.844;4.418;2024-03-06T10:48:28;3.30;;;2.38;;
22336;SDS011;14992;50.844;4.418;2024-03-06T10:50:57;5.68;;;2.78;;
22336;SDS011;14992;50.844;4.418;2024-03-06T10:53:31;3.75;;;2.30;;
22336;SDS011;14992;50.844;4.418;2024-03-06T10:56:02;3.80;;;2.40;;
22336;SDS011;14992;50.844;4.418;2024-03-06T10:58:33;4.93;;;1.88;;
22336;SDS011;14992;50.844;4.418;2024-03-06T11:01:03;2.80;;;2.22;;
22336;SDS011;14992;50.844;4.418;2024-03-06T11:03:34;3.35;;;2.00;;
22336;SDS011;14992;50.844;4.418;2024-03-06T11:06:05;4.28;;;1.98;;
22336;SDS011;14992;50.844;4.418;2024-03-06T11:08:36;5.47;;;2.08;;
22336;SDS011;14992;50.844;4.418;2024-03-06T11:11:20;8.18;;;2.22;;
22336;SDS011;14992;50.844;4.418;2024-03-06T11:13:54;4.13;;;2.22;;
22336;SDS011;14992;50.844;4.418;2024-03-06T11:16:28;3.30;;;2.10;;
22336;SDS011;14992;50.844;4.418;2024-03-06T11:19:06;3.13;;;2.58;;
22336;SDS011;14992;50.844;4.418;2024-03-06T11:21:45;4.78;;;2.20;;
22336;SDS011;14992;50.844;4.418;2024-03-06T11:24:18;2.33;;;1.73;;
22336;SDS011;14992;50.844;4.418;2024-03-06T11:26:53;3.83;;;2.17;;
22336;SDS011;14992;50.844;4.418;2024-03-06T11:29:26;4.55;;;2.05;;
22336;SDS011;14992;50.844;4.418;2024-03-06T11:32:10;3.25;;;1.85;;
22336;SDS011;14992;50.844;4.418;2024-03-06T11:34:40;4.30;;;1.90;;
22336;SDS011;14992;50.844;4.418;2024-03-06T11:37:09;3.38;;;1.83;;
22336;SDS011;14992;50.844;4.418;2024-03-06T11:39:40;6.43;;;1.95;;
22336;SDS011;14992;50.844;4.418;2024-03-06T11:42:12;4.47;;;2.78;;
22336;SDS011;14992;50.844;4.418;2024-03-06T11:44:52;9.60;;;2.58;;
22336;SDS011;14992;50.844;4.418;2024-03-06T11:47:22;5.13;;;2.63;;
22336;SDS011;14992;50.844;4.418;2024-03-06T11:49:52;2.97;;;2.13;;
22336;SDS011;14992;50.844;4.418;2024-03-06T11:52:21;3.67;;;2.33;;
22336;SDS011;14992;50.844;4.418;2024-03-06T11:54:52;4.57;;;2.53;;
22336;SDS011;14992;50.844;4.418;2024-03-06T11:57:21;5.13;;;2.35;;
22336;SDS011;14992;50.844;4.418;2024-03-06T11:59:51;5.18;;;2.80;;
22336;SDS011;14992;50.844;4.418;2024-03-06T12:02:22;5.85;;;2.30;;
22336;SDS011;14992;50.844;4.418;2024-03-06T12:04:51;3.45;;;2.45;;
22336;SDS011;14992;50.844;4.418;2024-03-06T12:07:20;7.22;;;2.53;;
22336;SDS011;14992;50.844;4.418;2024-03-06T12:09:51;2.80;;;2.10;;
22336;SDS011;14992;50.844;4.418;2024-03-06T12:12:22;4.85;;;2.30;;
22336;SDS011;14992;50.844;4.418;2024-03-06T12:14:55;6.70;;;2.28;;
22336;SDS011;14992;50.844;4.418;2024-03-06T12:17:26;5.20;;;2.70;;
22336;SDS011;14992;50.844;4.418;2024-03-06T12:19:56;4.47;;;2.22;;
22336;SDS011;14992;50.844;4.418;2024-03-06T12:22:25;5.90;;;2.38;;
22336;SDS011;14992;50.844;4.418;2024-03-06T12:25:01;6.18;;;3.05;;
22336;SDS011;14992;50.844;4.418;2024-03-06T12:27:31;5.05;;;3.13;;
22336;SDS011;14992;50.844;4.418;2024-03-06T12:30:08;6.22;;;3.20;;
22336;SDS011;14992;50.844;4.418;2024-03-06T12:32:40;4.07;;;3.20;;
22336;SDS011;14992;50.844;4.418;2024-03-06T12:35:09;6.72;;;3.72;;
22336;SDS011;14992;50.844;4.418;2024-03-06T12:37:38;8.90;;;3.65;;
22336;SDS011;14992;50.844;4.418;2024-03-06T12:40:09;7.32;;;3.63;;
22336;SDS011;14992;50.844;4.418;2024-03-06T12:42:40;5.07;;;3.45;;
22336;SDS011;14992;50.844;4.418;2024-03-06T12:45:10;5.18;;;2.90;;
22336;SDS011;14992;50.844;4.418;2024-03-06T12:47:40;6.78;;;3.65;;
22336;SDS011;14992;50.844;4.418;2024-03-06T12:50:09;5.40;;;2.75;;
22336;SDS011;14992;50.844;4.418;2024-03-06T12:52:38;6.30;;;2.92;;
22336;SDS011;14992;50.844;4.418;2024-03-06T12:55:09;4.40;;;2.65;;
22336;SDS011;14992;50.844;4.418;2024-03-06T12:57:38;4.43;;;2.78;;
22336;SDS011;14992;50.844;4.418;2024-03-06T13:00:07;5.38;;;3.03;;
22336;SDS011;14992;50.844;4.418;2024-03-06T13:02:43;5.50;;;3.28;;
22336;SDS011;14992;50.844;4.418;2024-03-06T13:05:12;4.57;;;2.58;;
22336;SDS011;14992;50.844;4.418;2024-03-06T13:07:41;6.80;;;3.30;;
22336;SDS011;14992;50.844;4.418;2024-03-06T13:10:12;8.10;;;2.85;;
22336;SDS011;14992;50.844;4.418;2024-03-06T13:12:41;6.20;;;3.05;;
22336;SDS011;14992;50.844;4.418;2024-03-06T13:15:10;6.35;;;2.80;;
22336;SDS011;14992;50.844;4.418;2024-03-06T13:17:39;5.07;;;3.40;;
22336;SDS011;14992;50.844;4.418;2024-03-06T13:20:08;6.28;;;3.22;;
22336;SDS011;14992;50.844;4.418;2024-03-06T13:22:39;4.45;;;3.17;;
22336;SDS011;14992;50.844;4.418;2024-03-06T13:25:08;4.40;;;2.63;;
22336;SDS011;14992;50.844;4.418;2024-03-06T13:27:38;4.45;;;3.03;;
22336;SDS011;14992;50.844;4.418;2024-03-06T13:30:07;3.17;;;2.60;;
22336;SDS011;14992;50.844;4.418;2024-03-06T13:32:36;4.63;;;2.72;;
22336;SDS011;14992;50.844;4.418;2024-03-06T13:35:06;3.75;;;2.55;;
22336;SDS011;14992;50.844;4.418;2024-03-06T13:37:39;7.25;;;3.08;;
22336;SDS011;14992;50.844;4.418;2024-03-06T13:40:09;4.47;;;2.00;;
22336;SDS011;14992;50.844;4.418;2024-03-06T13:42:42;6.28;;;2.72;;
22336;SDS011;14992;50.844;4.418;2024-03-06T13:45:11;5.50;;;3.20;;
22336;SDS011;14992;50.844;4.418;2024-03-06T13:47:41;4.75;;;2.42;;
22336;SDS011;14992;50.844;4.418;2024-03-06T13:50:12;4.90;;;2.78;;
22336;SDS011;14992;50.844;4.418;2024-03-06T13:52:42;5.20;;;1.88;;
22336;SDS011;14992;50.844;4.418;2024-03-06T13:55:11;3.28;;;1.75;;
22336;SDS011;14992;50.844;4.418;2024-03-06T13:57:42;4.15;;;2.40;;
22336;SDS011;14992;50.844;4.418;2024-03-06T14:00:11;4.68;;;2.35;;
22336;SDS011;14992;50.844;4.418;2024-03-06T14:02:45;5.20;;;2.17;;
22336;SDS011;14992;50.844;4.418;2024-03-06T14:05:14;5.18;;;1.92;;
22336;SDS011;14992;50.844;4.418;2024-03-06T14:07:43;4.43;;;1.83;;
22336;SDS011;14992;50.844;4.418;2024-03-06T14:10:12;3.88;;;2.30;;
22336;SDS011;14992;50.844;4.418;2024-03-06T14:12:43;3.65;;;1.73;;
22336;SDS011;14992;50.844;4.418;2024-03-06T14:15:12;5.47;;;1.80;;
22336;SDS011;14992;50.844;4.418;2024-03-06T14:17:43;2.63;;;1.52;;
22336;SDS011;14992;50.844;4.418;2024-03-06T14:20:12;3.00;;;1.83;;
22336;SDS011;14992;50.844;4.418;2024-03-06T14:22:42;3.63;;;1.52;;
22336;SDS011;14992;50.844;4.418;2024-03-06T14:25:11;4.30;;;1.88;;
22336;SDS011;14992;50.844;4.418;2024-03-06T14:27:40;4.32;;;2.20;;
22336;SDS011;14992;50.844;4.418;2024-03-06T14:30:11;3.65;;;2.05;;
22336;SDS011;14992;50.844;4.418;2024-03-06T14:32:42;3.10;;;1.48;;
22336;SDS011;14992;50.844;4.418;2024-03-06T14:35:15;2.78;;;1.52;;
22336;SDS011;14992;50.844;4.418;2024-03-06T14:37:44;3.78;;;2.13;;
22336;SDS011;14992;50.844;4.418;2024-03-06T14:40:13;14.35;;;7.15;;
22336;SDS011;14992;50.844;4.418;2024-03-06T14:42:42;4.22;;;2.45;;
22336;SDS011;14992;50.844;4.418;2024-03-06T14:45:12;5.35;;;1.63;;
22336;SDS011;14992;50.844;4.418;2024-03-06T14:47:41;3.15;;;1.70;;
22336;SDS011;14992;50.844;4.418;2024-03-06T14:50:10;2.35;;;1.27;;
22336;SDS011;14992;50.844;4.418;2024-03-06T14:52:39;1.92;;;1.35;;
22336;SDS011;14992;50.844;4.418;2024-03-06T14:55:08;3.17;;;1.58;;
22336;SDS011;14992;50.844;4.418;2024-03-06T14:57:37;3.63;;;2.15;;
22336;SDS011;14992;50.844;4.418;2024-03-06T15:00:06;2.88;;;1.60;;
22336;SDS011;14992;50.844;4.418;2024-03-06T15:02:37;2.78;;;1.95;;
22336;SDS011;14992;50.844;4.418;2024-03-06T15:05:07;4.93;;;2.42;;
22336;SDS011;14992;50.844;4.418;2024-03-06T15:07:39;3.60;;;2.40;;